createdAt,value
2023-05-15T05:51:36.635Z,95094.78
2023-05-15T05:54:06.788Z,95102.03
2023-05-15T05:56:36.453Z,95086.19
2023-05-15T05:59:06.494Z,95099.56
2023-05-15T06:01:36.261Z,95097.41
2023-05-15T06:04:06.598Z,95104.09
2023-05-15T06:06:37.532Z,95098.66
2023-05-15T06:09:07.015Z,95102.66
2023-05-15T06:11:37.195Z,95114.16
2023-05-15T06:14:08.380Z,95114.16
2023-05-15T06:16:37.924Z,95109.53
2023-05-15T06:19:07.808Z,95103.06
2023-05-15T06:21:38.789Z,95104.66
2023-05-15T06:24:08.574Z,95105.97
2023-05-15T06:26:38.226Z,95107.03
2023-05-15T06:29:07.685Z,95113.47
2023-05-15T06:31:37.202Z,95111.00
2023-05-15T06:34:06.661Z,95116.34
2023-05-15T06:36:36.327Z,95107.44
2023-05-15T06:39:10.571Z,95111.72
2023-05-15T06:41:40.130Z,95112.50
2023-05-15T06:44:14.917Z,95114.84
2023-05-15T06:46:44.446Z,95118.31
2023-05-15T06:49:13.971Z,95109.66
2023-05-15T06:51:43.485Z,95117.72
2023-05-15T06:54:15.545Z,95118.50
2023-05-15T06:56:45.234Z,95120.09
2023-05-15T06:59:14.915Z,95115.75
2023-05-15T07:01:44.521Z,95113.78
2023-05-15T07:04:14.033Z,95113.75
2023-05-15T07:06:44.913Z,95108.28
2023-05-15T07:09:15.980Z,95118.38
2023-05-15T07:11:45.450Z,95117.44
2023-05-15T07:14:15.007Z,95115.94
2023-05-15T07:16:45.154Z,95114.22
2023-05-15T07:19:17.452Z,95115.44
2023-05-15T07:21:47.089Z,95105.34
2023-05-15T07:24:17.911Z,95112.88
2023-05-15T07:26:58.077Z,95106.66
2023-05-15T07:29:28.767Z,95109.13
2023-05-15T07:31:58.251Z,95111.50
2023-05-15T07:34:27.856Z,95107.66
2023-05-15T07:36:57.350Z,95107.78
2023-05-15T07:39:28.211Z,95107.66
2023-05-15T07:41:57.827Z,95111.22
2023-05-15T07:44:27.329Z,95101.41
2023-05-15T07:46:57.442Z,95110.06
2023-05-15T07:49:26.926Z,95109.13
2023-05-15T07:51:56.442Z,95105.94
2023-05-15T07:54:27.836Z,95108.69
2023-05-15T07:56:57.519Z,95106.72
2023-05-15T07:59:28.174Z,95113.72
2023-05-15T08:01:57.957Z,95105.03
2023-05-15T08:04:27.535Z,95103.28
2023-05-15T08:06:57.129Z,95105.91
2023-05-15T08:09:27.980Z,95104.31
2023-05-15T08:11:58.317Z,95105.13
2023-05-15T08:14:27.884Z,95116.56
2023-05-15T08:16:57.404Z,95105.69
2023-05-15T08:19:26.953Z,95114.47
2023-05-15T08:21:56.397Z,95110.66
2023-05-15T08:24:27.332Z,95106.59
2023-05-15T08:26:56.770Z,95110.31
2023-05-15T08:29:26.220Z,95107.75
2023-05-15T08:31:55.672Z,95104.22
2023-05-15T08:34:25.119Z,95104.75
2023-05-15T08:36:55.839Z,95102.19
2023-05-15T08:39:25.691Z,95102.28
2023-05-15T08:42:06.904Z,95089.88
2023-05-15T08:44:37.328Z,95086.47
2023-05-15T08:47:08.023Z,95085.34
2023-05-15T08:49:51.521Z,95091.94
2023-05-15T08:52:21.505Z,95090.34
2023-05-15T08:54:51.316Z,95091.91
2023-05-15T08:57:22.623Z,95089.19
2023-05-15T08:59:54.088Z,95084.19
2023-05-15T09:02:25.333Z,95079.31
2023-05-15T09:04:55.022Z,95078.06
2023-05-15T09:07:25.002Z,95086.72
2023-05-15T09:09:55.619Z,95082.63
2023-05-15T09:12:27.851Z,95080.97
2023-05-15T09:15:11.954Z,95075.19
2023-05-15T09:17:43.112Z,95084.75
2023-05-15T09:20:31.980Z,95075.03
2023-05-15T09:23:04.636Z,95076.25
2023-05-15T09:25:38.512Z,95069.91
2023-05-15T09:28:24.784Z,95067.81
2023-05-15T09:31:01.259Z,95065.88
2023-05-15T09:33:36.111Z,95057.63
2023-05-15T09:36:08.723Z,95054.97
2023-05-15T09:38:43.653Z,95054.63
2023-05-15T09:41:13.120Z,95057.47
2023-05-15T09:43:43.892Z,95050.97
2023-05-15T09:46:15.918Z,95054.16
2023-05-15T09:48:45.665Z,95046.47
2023-05-15T09:51:19.899Z,95048.75
2023-05-15T09:53:51.486Z,95050.19
2023-05-15T09:56:22.141Z,95050.53
2023-05-15T09:58:57.793Z,95050.03
2023-05-15T10:01:28.366Z,95045.53
2023-05-15T10:04:03.129Z,95041.56
2023-05-15T10:06:37.512Z,95037.91
2023-05-15T10:09:07.553Z,95037.41
2023-05-15T10:11:39.188Z,95037.22
2023-05-15T10:14:13.136Z,95036.91
2023-05-15T10:16:43.228Z,95026.56
2023-05-15T10:19:14.454Z,95027.06
2023-05-15T10:21:44.496Z,95013.25
2023-05-15T10:24:14.955Z,95024.78
2023-05-15T10:26:45.096Z,95014.91
2023-05-15T10:29:21.109Z,95021.28
2023-05-15T10:31:52.419Z,95007.03
2023-05-15T10:34:22.316Z,95003.19
2023-05-15T10:36:52.532Z,95004.22
2023-05-15T10:39:22.657Z,94990.44
2023-05-15T10:41:52.573Z,94982.00
2023-05-15T10:44:24.513Z,94994.72
2023-05-15T10:46:54.603Z,95002.28
2023-05-15T10:49:24.254Z,94999.34
2023-05-15T10:51:55.065Z,94991.25
2023-05-15T10:54:24.683Z,94992.19
2023-05-15T10:56:58.197Z,94980.34
2023-05-15T10:59:36.167Z,94979.69
2023-05-15T11:02:23.519Z,94975.75
2023-05-15T11:04:58.452Z,94966.63
2023-05-15T11:07:28.973Z,94974.00
2023-05-15T11:09:59.604Z,94973.22
2023-05-15T11:12:59.372Z,94971.25
2023-05-15T11:15:44.375Z,94967.59
2023-05-15T11:18:14.912Z,94979.19
2023-05-15T11:21:09.729Z,94967.13
2023-05-15T11:23:42.903Z,94967.34
2023-05-15T11:26:15.040Z,94968.91
2023-05-15T11:28:47.097Z,94961.44
2023-05-15T11:31:18.148Z,94950.00
2023-05-15T11:33:52.463Z,94955.38
2023-05-15T11:36:25.892Z,94950.31
2023-05-15T11:38:55.409Z,94952.22
2023-05-15T11:41:32.687Z,94954.00
2023-05-15T11:44:03.260Z,94971.09
2023-05-15T11:46:35.035Z,94978.00
2023-05-15T11:49:04.527Z,94975.47
2023-05-15T11:51:35.429Z,94979.63
2023-05-15T11:54:07.435Z,94991.63
2023-05-15T11:56:43.528Z,94994.59
2023-05-15T11:59:15.794Z,94992.69
2023-05-15T12:01:47.583Z,94998.22
2023-05-15T13:28:49.973Z,95006.44
2023-05-15T13:31:19.547Z,95004.19
2023-05-15T13:33:50.109Z,95001.94
2023-05-15T13:36:19.618Z,95009.63
2023-05-15T13:38:49.114Z,95005.47
2023-05-15T13:41:18.657Z,95010.75
2023-05-15T13:43:49.298Z,95030.19
2023-05-15T13:46:20.202Z,95042.88
2023-05-15T13:48:49.721Z,95056.00
2023-05-15T13:51:19.244Z,95067.00
2023-05-15T13:53:48.718Z,95069.19
2023-05-15T13:56:18.386Z,95085.03
2023-05-15T13:58:48.059Z,95089.88
2023-05-15T14:01:18.918Z,95095.66
2023-05-15T14:03:48.449Z,95100.63
2023-05-15T14:06:18.109Z,95101.84
2023-05-15T14:08:47.526Z,95103.56
2023-05-15T14:11:17.171Z,95096.88
2023-05-15T14:13:47.344Z,95102.19
2023-05-15T14:16:28.760Z,95106.34
2023-05-15T14:18:58.386Z,95095.72
2023-05-15T14:21:29.014Z,95101.25
2023-05-15T14:23:58.569Z,95096.41
2023-05-15T14:26:28.492Z,95096.72
2023-05-15T14:28:57.964Z,95106.13
2023-05-15T14:31:28.856Z,95095.09
2023-05-15T14:33:58.560Z,95101.88
2023-05-15T14:36:28.287Z,95107.78
2023-05-15T14:39:00.209Z,95107.78
2023-05-15T14:41:30.052Z,95096.41
2023-05-15T14:43:59.478Z,95102.31
2023-05-15T14:46:30.514Z,95102.31
2023-05-15T14:49:00.143Z,95108.53
2023-05-15T14:51:29.772Z,95102.91
2023-05-15T14:53:59.287Z,95092.06
2023-05-15T14:56:29.009Z,95090.31
2023-05-15T14:58:58.505Z,95085.03
2023-05-15T15:01:29.470Z,95085.28
2023-05-15T15:03:59.095Z,95085.50
2023-05-15T15:06:28.882Z,95090.09
2023-05-15T15:08:58.380Z,95098.41
2023-05-15T15:11:27.839Z,95092.94
2023-05-15T15:13:57.316Z,95091.03
2023-05-15T15:16:26.854Z,95092.94
2023-05-15T15:18:57.756Z,95088.84
2023-05-15T15:21:28.316Z,95096.06
2023-05-15T15:23:59.517Z,95088.69
2023-05-15T15:26:29.157Z,95088.53
2023-05-15T15:29:00.837Z,95089.00
2023-05-15T15:31:31.830Z,95090.19
2023-05-15T15:34:05.378Z,95085.63
2023-05-15T15:36:37.496Z,95086.94
2023-05-15T15:39:07.204Z,95074.53
2023-05-15T15:41:39.687Z,95077.97
2023-05-15T15:44:09.173Z,95091.38
2023-05-15T15:46:38.816Z,95068.81
2023-05-15T15:49:09.630Z,95082.34
2023-05-15T15:51:41.061Z,95075.25
2023-05-15T15:54:10.579Z,95064.00
2023-05-15T15:56:41.375Z,95063.97
2023-05-15T15:59:10.911Z,95068.91
2023-05-15T16:01:40.472Z,95068.28
2023-05-15T16:04:11.772Z,95060.16
2023-05-15T16:06:41.314Z,95064.09
2023-05-15T16:09:10.844Z,95055.28
2023-05-15T16:11:40.328Z,95058.97
2023-05-15T16:14:09.812Z,95056.84
2023-05-15T16:16:39.401Z,95055.97
2023-05-15T16:19:10.295Z,95067.84
2023-05-15T16:21:39.999Z,95066.53
2023-05-15T16:24:09.793Z,95069.22
2023-05-15T16:26:40.171Z,95081.47
2023-05-15T16:29:09.695Z,95080.38
2023-05-15T16:31:39.288Z,95084.09
2023-05-15T16:34:10.238Z,95083.22
2023-05-15T16:36:39.885Z,95090.44
2023-05-15T16:39:09.337Z,95090.59
2023-05-15T16:41:38.859Z,95091.63
2023-05-15T16:44:10.905Z,95086.31
2023-05-15T16:46:40.965Z,95098.25
2023-05-15T16:49:11.810Z,95107.72
2023-05-15T16:51:41.391Z,95106.47
2023-05-15T16:54:10.990Z,95112.09
2023-05-15T16:56:40.565Z,95121.56
2023-05-15T16:59:10.056Z,95130.44
2023-05-15T17:01:39.731Z,95130.16
2023-05-15T17:04:10.795Z,95132.56
2023-05-15T17:06:40.509Z,95128.84
2023-05-15T17:09:10.070Z,95123.44
2023-05-15T17:11:39.713Z,95124.53
2023-05-15T17:14:09.170Z,95118.66
2023-05-15T17:16:38.799Z,95118.84
2023-05-15T17:19:08.417Z,95126.75
2023-05-15T17:21:39.277Z,95124.63
2023-05-15T17:24:08.932Z,95126.59
2023-05-15T17:26:38.419Z,95125.22
2023-05-15T17:29:08.107Z,95122.50
2023-05-15T17:31:38.064Z,95125.22
2023-05-15T17:34:08.253Z,95124.69
2023-05-15T17:36:39.219Z,95126.81
2023-05-15T17:39:08.680Z,95129.22
2023-05-15T17:41:38.461Z,95128.41
2023-05-15T17:44:08.742Z,95124.69
2023-05-15T17:46:38.322Z,95129.84
2023-05-15T17:49:07.886Z,95131.56
2023-05-15T17:51:38.972Z,95132.47
2023-05-15T17:54:08.470Z,95140.63
2023-05-15T17:56:37.907Z,95138.53
2023-05-15T17:59:07.395Z,95139.38
2023-05-15T18:01:36.999Z,95141.66
2023-05-15T18:04:06.781Z,95145.19
2023-05-15T18:06:36.335Z,95137.66
2023-05-15T18:09:07.787Z,95141.16
2023-05-15T18:11:37.320Z,95135.78
2023-05-15T18:14:06.806Z,95140.06
2023-05-15T18:16:36.678Z,95148.97
2023-05-15T18:19:06.264Z,95135.81
2023-05-15T18:21:37.841Z,95147.41
2023-05-15T18:24:09.694Z,95146.63
2023-05-15T18:26:39.755Z,95154.44
2023-05-15T18:29:09.427Z,95151.50
2023-05-15T18:31:39.289Z,95161.47
2023-05-15T18:34:08.812Z,95156.91
2023-05-15T18:36:38.594Z,95149.38
2023-05-15T18:39:09.598Z,95151.25
2023-05-15T18:41:39.282Z,95151.25
2023-05-15T18:44:08.846Z,95149.13
2023-05-15T18:46:38.673Z,95150.75
2023-05-15T18:49:08.283Z,95155.63
2023-05-15T18:51:37.755Z,95157.75
2023-05-15T18:54:08.804Z,95157.22
2023-05-15T18:56:38.651Z,95164.28
2023-05-15T18:59:08.609Z,95163.75
2023-05-15T19:01:38.402Z,95169.19
2023-05-15T19:04:09.359Z,95170.03
2023-05-15T19:06:39.193Z,95173.28
2023-05-15T19:09:10.510Z,95179.50
2023-05-15T19:11:39.969Z,95185.75
2023-05-15T19:14:10.821Z,95185.22
2023-05-15T19:16:40.495Z,95189.31
2023-05-15T19:19:10.446Z,95185.03
2023-05-15T19:21:40.361Z,95188.84
2023-05-15T19:24:11.511Z,95185.16
2023-05-15T19:26:41.331Z,95191.13
2023-05-15T19:29:11.012Z,95191.69
2023-05-15T19:31:40.917Z,95194.19
2023-05-15T19:34:10.483Z,95190.34
2023-05-15T19:36:40.084Z,95189.81
2023-05-15T19:39:10.994Z,95192.78
2023-05-15T19:41:40.563Z,95188.00
2023-05-15T19:44:10.433Z,95194.72
2023-05-15T19:46:40.755Z,95197.69
2023-05-15T19:49:12.252Z,95197.16
2023-05-15T19:51:42.074Z,95186.44
2023-05-15T19:54:13.116Z,95196.13
2023-05-15T19:56:42.584Z,95201.47
2023-05-15T19:59:12.113Z,95195.31
2023-05-15T20:01:41.667Z,95200.72
2023-05-15T20:04:13.597Z,95203.44
2023-05-15T20:06:43.142Z,95199.94
2023-05-15T20:09:13.925Z,95204.78
2023-05-15T20:11:43.591Z,95201.56
2023-05-15T20:14:15.144Z,95202.94
2023-05-15T20:16:44.676Z,95201.91
2023-05-15T20:19:14.522Z,95201.09
2023-05-15T20:21:44.292Z,95197.06
2023-05-15T20:24:17.520Z,95197.63
2023-05-15T20:26:47.142Z,95201.09
2023-05-15T20:29:16.801Z,95200.31
2023-05-15T20:31:46.945Z,95197.09
2023-05-15T20:34:16.544Z,95196.84
2023-05-15T20:36:46.089Z,95201.97
2023-05-15T20:39:19.130Z,95198.47
2023-05-15T20:41:48.948Z,95202.25
2023-05-15T20:44:18.752Z,95199.28
2023-05-15T20:46:48.379Z,95201.16
2023-05-15T20:49:17.871Z,95194.97
2023-05-15T20:51:48.603Z,95195.28
2023-05-15T20:54:19.567Z,95199.31
2023-05-15T20:56:49.130Z,95198.50
2023-05-15T20:59:18.695Z,95206.03
2023-05-15T21:01:48.403Z,95204.13
2023-05-15T21:04:18.223Z,95202.81
2023-05-15T21:06:47.697Z,95205.75
2023-05-15T21:09:18.708Z,95196.34
2023-05-15T21:11:48.536Z,95199.31
2023-05-15T21:14:18.043Z,95196.34
2023-05-15T21:16:47.816Z,95200.66
2023-05-15T21:19:17.635Z,95199.84
2023-05-15T21:21:47.261Z,95201.19
2023-05-15T21:24:19.564Z,95204.13
2023-05-15T21:26:49.033Z,95201.72
2023-05-15T21:29:18.721Z,95204.41
2023-05-15T21:31:48.806Z,95193.66
2023-05-15T21:34:18.484Z,95195.00
2023-05-15T21:36:47.940Z,95198.22
2023-05-15T21:39:18.850Z,95186.69
2023-05-15T21:41:48.799Z,95198.78
2023-05-15T21:44:18.546Z,95193.94
2023-05-15T21:46:48.130Z,95201.44
2023-05-15T21:49:18.314Z,95196.34
2023-05-15T21:51:47.799Z,95195.81
2023-05-15T21:54:17.336Z,95203.06
2023-05-15T21:56:48.211Z,95200.91
2023-05-15T21:59:17.753Z,95195.53
2023-05-15T22:01:48.522Z,95207.09
2023-05-15T22:04:18.263Z,95197.41
2023-05-15T22:06:47.978Z,95203.06
2023-05-15T22:09:17.736Z,95204.94
2023-05-15T22:11:48.645Z,95215.41
2023-05-15T22:14:18.162Z,95212.72
2023-05-15T22:16:48.033Z,95212.75
2023-05-15T22:19:32.281Z,95222.94
2023-05-15T22:22:04.859Z,95226.16
2023-05-15T22:24:34.497Z,95224.28
2023-05-15T22:27:06.122Z,95224.53
2023-05-15T22:29:35.677Z,95229.09
2023-05-15T22:32:06.109Z,95222.38
2023-05-15T22:34:35.875Z,95230.19
2023-05-15T22:37:06.259Z,95236.06
2023-05-15T22:39:35.810Z,95239.84
2023-05-15T22:42:08.019Z,95237.44
2023-05-15T22:44:38.148Z,95230.97
2023-05-15T22:47:08.227Z,95236.06
2023-05-15T22:49:37.641Z,95229.63
2023-05-15T22:52:07.895Z,95228.03
2023-05-15T22:54:37.363Z,95220.50
2023-05-15T22:57:08.819Z,95226.69
2023-05-15T22:59:38.282Z,95226.69
2023-05-15T23:02:07.905Z,95221.56
2023-05-15T23:04:37.883Z,95222.38
2023-05-15T23:07:07.714Z,95218.63
2023-05-15T23:09:37.285Z,95221.31
2023-05-15T23:12:09.141Z,95217.28
2023-05-15T23:14:38.608Z,95218.88
2023-05-15T23:17:08.105Z,95216.72
2023-05-15T23:19:37.521Z,95215.66
2023-05-15T23:22:07.282Z,95216.19
2023-05-15T23:24:36.725Z,95215.13
2023-05-15T23:27:07.840Z,95213.53
2023-05-15T23:29:37.864Z,95213.78
2023-05-15T23:32:09.059Z,95204.13
2023-05-15T23:34:38.664Z,95208.69
2023-05-15T23:37:08.255Z,95201.16
2023-05-15T23:39:37.752Z,95204.13
2023-05-15T23:42:09.957Z,95208.97
2023-05-15T23:44:39.759Z,95203.59
2023-05-15T23:47:09.754Z,95201.97
2023-05-15T23:49:39.263Z,95202.50
2023-05-15T23:52:08.957Z,95202.50
2023-05-15T23:54:38.385Z,95201.72
2023-05-15T23:57:09.264Z,95199.28
2023-05-15T23:59:38.709Z,95193.94
